createdAt,value
2023-05-24T00:03:55.088Z,99810.50
2023-05-24T00:11:13.540Z,99812.69
2023-05-24T00:18:32.237Z,99816.69
2023-05-24T00:25:52.301Z,99814.06
2023-05-24T00:33:10.746Z,99818.88
2023-05-24T00:40:29.273Z,99833.41
2023-05-24T00:47:49.526Z,99837.75
2023-05-24T00:55:09.109Z,99843.91
2023-05-24T01:02:27.856Z,99853.41
2023-05-24T01:09:54.777Z,99855.06
2023-05-24T01:17:18.527Z,99868.00
2023-05-24T01:24:45.924Z,99869.59
2023-05-24T01:32:06.744Z,99864.59
2023-05-24T01:39:28.085Z,99889.06
2023-05-24T01:46:49.157Z,99894.44
2023-05-24T01:54:09.666Z,99905.47
2023-05-24T02:01:28.188Z,99918.03
2023-05-24T02:08:46.686Z,99916.03
2023-05-24T02:16:06.853Z,99942.91
2023-05-24T02:23:25.100Z,99952.19
2023-05-24T02:30:44.897Z,99947.75
2023-05-24T02:38:07.052Z,99956.13
2023-05-24T02:45:25.582Z,99967.03
2023-05-24T02:52:43.781Z,99985.50
2023-05-24T03:00:05.604Z,99992.75
2023-05-24T03:07:24.031Z,100006.75
2023-05-24T03:14:42.644Z,100019.59
2023-05-24T03:22:02.440Z,100033.91
2023-05-24T03:29:21.201Z,100032.25
2023-05-24T03:36:40.470Z,100032.25
2023-05-24T03:44:01.739Z,100025.03
2023-05-24T03:51:24.333Z,100028.81
2023-05-24T03:58:42.714Z,100026.00
2023-05-24T04:06:03.616Z,100046.41
2023-05-24T04:13:22.814Z,100043.63
2023-05-24T04:20:41.736Z,100058.72
2023-05-24T04:28:04.310Z,100074.72
2023-05-24T04:35:24.366Z,100082.78
2023-05-24T04:42:42.983Z,100088.41
2023-05-24T04:50:02.849Z,100085.44
2023-05-24T04:57:21.297Z,100089.38
2023-05-24T05:04:39.562Z,100101.59
2023-05-24T05:11:59.988Z,100105.38
2023-05-24T05:19:18.352Z,100115.41
2023-05-24T05:26:37.018Z,100135.81
2023-05-24T05:33:56.651Z,100148.16
2023-05-24T05:41:14.919Z,100153.59
2023-05-24T05:48:33.604Z,100165.63
2023-05-24T05:55:53.467Z,100167.94
2023-05-24T06:03:12.346Z,100171.22
2023-05-24T06:10:30.614Z,100176.34
2023-05-24T06:17:51.996Z,100191.69
2023-05-24T06:25:14.837Z,100193.31
2023-05-24T06:32:33.527Z,100210.47
2023-05-24T06:39:53.813Z,100219.34
2023-05-24T06:47:12.328Z,100237.03
2023-05-24T06:54:31.101Z,100247.72
2023-05-24T07:01:54.040Z,100250.50
2023-05-24T07:09:12.344Z,100242.25
2023-05-24T07:16:30.901Z,100250.13
2023-05-24T07:23:51.113Z,100257.84
2023-05-24T07:31:10.151Z,100270.28
2023-05-24T07:38:29.511Z,100271.75
2023-05-24T07:45:49.946Z,100292.16
2023-05-24T07:53:08.673Z,100289.56
2023-05-24T08:00:26.992Z,100287.75
2023-05-24T08:07:46.805Z,100303.41
2023-05-24T08:15:05.985Z,100304.16
2023-05-24T08:22:24.502Z,100304.25
2023-05-24T08:29:44.227Z,100308.16
2023-05-24T08:37:02.408Z,100308.44
2023-05-24T08:44:22.690Z,100317.09
2023-05-24T08:51:42.424Z,100320.03
2023-05-24T08:59:00.994Z,100331.13
2023-05-24T09:06:21.190Z,100325.41
2023-05-24T09:13:41.677Z,100333.47
2023-05-24T09:21:00.418Z,100336.00
2023-05-24T09:28:21.248Z,100350.56
2023-05-24T09:35:43.804Z,100349.75
2023-05-24T09:43:07.677Z,100353.31
2023-05-24T09:50:28.051Z,100344.22
2023-05-24T09:57:52.976Z,100341.72
2023-05-24T10:05:12.372Z,100354.81
2023-05-24T10:12:32.569Z,100359.06
2023-05-24T10:19:53.010Z,100359.31
2023-05-24T10:27:15.839Z,100371.63
2023-05-24T10:34:34.142Z,100364.06
2023-05-24T10:41:57.458Z,100372.91
2023-05-24T10:49:15.559Z,100381.47
2023-05-24T10:56:41.718Z,100378.63
2023-05-24T11:04:12.870Z,100376.94
2023-05-24T11:11:32.328Z,100378.91
2023-05-24T11:18:57.330Z,100381.22
2023-05-24T11:26:17.523Z,100389.47
2023-05-24T11:33:35.957Z,100393.38
2023-05-24T11:40:54.532Z,100388.09
2023-05-24T11:48:14.350Z,100394.56
2023-05-24T11:55:33.289Z,100397.94
2023-05-24T12:02:53.986Z,100391.97
2023-05-24T12:10:16.165Z,100393.59
2023-05-24T12:17:35.307Z,100387.88
2023-05-24T12:24:53.916Z,100378.56
2023-05-24T12:32:14.751Z,100384.63
2023-05-24T12:39:35.580Z,100398.44
2023-05-24T12:46:55.014Z,100388.41
2023-05-24T12:54:14.710Z,100387.84
2023-05-24T13:01:33.085Z,100390.41
2023-05-24T13:08:52.806Z,100392.13
2023-05-24T13:16:12.559Z,100391.78
2023-05-24T13:23:31.354Z,100389.84
2023-05-24T13:30:49.934Z,100386.53
2023-05-24T13:38:10.059Z,100397.47
2023-05-24T13:45:30.525Z,100396.91
2023-05-24T13:52:48.918Z,100388.56
2023-05-24T14:00:10.541Z,100399.19
2023-05-24T14:07:29.112Z,100398.88
2023-05-24T14:22:10.316Z,100392.75
2023-05-24T14:29:29.169Z,100394.53
2023-05-24T14:36:49.124Z,100397.53
2023-05-24T14:44:09.182Z,100404.75
2023-05-24T14:51:27.648Z,100395.34
2023-05-24T14:58:46.143Z,100396.41
2023-05-24T15:06:06.573Z,100404.97
2023-05-24T15:13:25.945Z,100409.81
2023-05-24T15:20:44.514Z,100394.66
2023-05-24T15:28:04.693Z,100400.41
2023-05-24T15:35:23.161Z,100402.75
2023-05-24T15:42:41.584Z,100393.50
2023-05-24T15:50:01.583Z,100397.25
2023-05-24T15:57:20.351Z,100376.28
2023-05-24T16:04:39.173Z,100389.25
2023-05-24T16:12:00.865Z,100382.97
2023-05-24T16:19:20.375Z,100390.91
2023-05-24T16:26:39.081Z,100400.41
2023-05-24T16:33:59.490Z,100407.75
2023-05-24T16:41:18.878Z,100409.91
2023-05-24T16:48:37.589Z,100411.09
2023-05-24T16:55:58.443Z,100428.91
2023-05-24T17:03:17.425Z,100444.31
2023-05-24T17:10:37.216Z,100443.50
2023-05-24T17:17:57.975Z,100447.25
2023-05-24T17:25:16.813Z,100448.00
2023-05-24T17:32:35.938Z,100458.28
2023-05-24T17:39:56.152Z,100464.47
2023-05-24T17:47:14.835Z,100465.97
2023-05-24T17:54:33.862Z,100473.13
2023-05-24T18:01:54.086Z,100470.13
2023-05-24T18:09:13.739Z,100488.16
2023-05-24T18:16:32.463Z,100501.97
2023-05-24T18:23:52.309Z,100509.16
2023-05-24T18:31:11.647Z,100512.75
2023-05-24T18:38:30.753Z,100515.63
2023-05-24T18:45:51.397Z,100529.06
2023-05-24T18:53:10.515Z,100537.44
2023-05-24T19:00:29.162Z,100544.75
2023-05-24T19:07:49.867Z,100547.69
2023-05-24T19:15:09.315Z,100555.50
2023-05-24T19:22:27.925Z,100551.34
2023-05-24T19:29:47.848Z,100545.41
2023-05-24T19:37:06.932Z,100541.28
2023-05-24T19:44:25.297Z,100557.63
2023-05-24T19:51:45.214Z,100553.03
2023-05-24T19:59:03.695Z,100553.59
2023-05-24T20:06:21.962Z,100548.06
2023-05-24T20:13:42.281Z,100553.09
2023-05-24T20:21:00.989Z,100559.88
2023-05-24T20:28:29.548Z,100572.25
2023-05-24T20:35:53.378Z,100574.47
2023-05-24T20:43:11.878Z,100580.94
2023-05-24T20:50:30.544Z,100584.41
2023-05-24T20:57:50.557Z,100582.84
2023-05-24T21:05:09.758Z,100575.56
2023-05-24T21:12:28.469Z,100579.69
2023-05-24T21:19:48.607Z,100585.63
2023-05-24T21:27:08.092Z,100590.28
2023-05-24T21:34:27.525Z,100593.84
2023-05-24T21:41:47.333Z,100603.25
2023-05-24T21:49:05.863Z,100602.84
2023-05-24T21:56:24.161Z,100604.88
2023-05-24T22:03:44.421Z,100608.97
2023-05-24T22:11:04.879Z,100607.66
2023-05-24T22:18:27.714Z,100618.22
2023-05-24T22:25:47.952Z,100620.56
2023-05-24T22:33:08.680Z,100629.19
2023-05-24T22:40:27.358Z,100616.59
2023-05-24T22:47:49.353Z,100609.00
2023-05-24T22:55:08.689Z,100617.75
2023-05-24T23:02:29.362Z,100612.63
2023-05-24T23:09:50.251Z,100618.13
2023-05-24T23:17:10.585Z,100619.38
2023-05-24T23:24:29.066Z,100619.81
2023-05-24T23:31:49.059Z,100619.00
2023-05-24T23:39:07.451Z,100618.84
2023-05-24T23:46:25.703Z,100622.31
2023-05-24T23:53:45.447Z,100632.53
